sensor_id;sensor_type;location;lat;lon;timestamp;P1;durP1;ratioP1;P2;durP2;ratioP2
7162;SDS011;3623;47.098;15.446;2023-03-05T00:00:15;28.15;;;20.80;;
7162;SDS011;3623;47.098;15.446;2023-03-05T00:02:43;22.60;;;16.85;;
7162;SDS011;3623;47.098;15.446;2023-03-05T00:05:10;28.55;;;18.23;;
7162;SDS011;3623;47.098;15.446;2023-03-05T00:07:37;22.83;;;16.20;;
7162;SDS011;3623;47.098;15.446;2023-03-05T00:10:05;29.95;;;19.55;;
7162;SDS011;3623;47.098;15.446;2023-03-05T00:12:33;23.10;;;18.23;;
7162;SDS011;3623;47.098;15.446;2023-03-05T00:15:01;26.63;;;18.10;;
7162;SDS011;3623;47.098;15.446;2023-03-05T00:17:28;23.58;;;18.83;;
7162;SDS011;3623;47.098;15.446;2023-03-05T00:19:56;25.73;;;19.17;;
7162;SDS011;3623;47.098;15.446;2023-03-05T00:22:24;25.70;;;16.55;;
7162;SDS011;3623;47.098;15.446;2023-03-05T00:24:51;30.00;;;19.90;;
7162;SDS011;3623;47.098;15.446;2023-03-05T00:27:18;30.38;;;18.65;;
7162;SDS011;3623;47.098;15.446;2023-03-05T00:29:45;25.15;;;19.85;;
7162;SDS011;3623;47.098;15.446;2023-03-05T00:32:13;30.40;;;18.55;;
7162;SDS011;3623;47.098;15.446;2023-03-05T00:34:41;28.50;;;18.92;;
7162;SDS011;3623;47.098;15.446;2023-03-05T00:37:08;28.90;;;19.88;;
7162;SDS011;3623;47.098;15.446;2023-03-05T00:39:35;33.67;;;18.52;;
7162;SDS011;3623;47.098;15.446;2023-03-05T00:42:02;27.08;;;19.55;;
7162;SDS011;3623;47.098;15.446;2023-03-05T00:44:29;29.80;;;19.98;;
7162;SDS011;3623;47.098;15.446;2023-03-05T00:46:56;32.25;;;19.50;;
7162;SDS011;3623;47.098;15.446;2023-03-05T00:49:24;24.35;;;18.63;;
7162;SDS011;3623;47.098;15.446;2023-03-05T00:51:52;26.98;;;18.55;;
7162;SDS011;3623;47.098;15.446;2023-03-05T00:54:19;23.73;;;17.50;;
7162;SDS011;3623;47.098;15.446;2023-03-05T00:56:46;27.42;;;18.70;;
7162;SDS011;3623;47.098;15.446;2023-03-05T00:59:13;28.65;;;18.13;;
7162;SDS011;3623;47.098;15.446;2023-03-05T01:01:40;27.50;;;18.38;;
7162;SDS011;3623;47.098;15.446;2023-03-05T01:04:07;36.03;;;19.00;;
7162;SDS011;3623;47.098;15.446;2023-03-05T01:06:36;29.17;;;19.15;;
7162;SDS011;3623;47.098;15.446;2023-03-05T01:09:06;30.25;;;17.38;;
7162;SDS011;3623;47.098;15.446;2023-03-05T01:11:34;30.92;;;18.00;;
7162;SDS011;3623;47.098;15.446;2023-03-05T01:14:01;25.05;;;16.98;;
7162;SDS011;3623;47.098;15.446;2023-03-05T01:16:28;26.63;;;17.75;;
7162;SDS011;3623;47.098;15.446;2023-03-05T01:18:55;23.38;;;16.08;;
7162;SDS011;3623;47.098;15.446;2023-03-05T01:21:22;27.52;;;17.83;;
7162;SDS011;3623;47.098;15.446;2023-03-05T01:23:50;20.52;;;16.13;;
7162;SDS011;3623;47.098;15.446;2023-03-05T01:26:17;31.40;;;18.45;;
7162;SDS011;3623;47.098;15.446;2023-03-05T01:28:44;28.65;;;18.77;;
7162;SDS011;3623;47.098;15.446;2023-03-05T01:31:11;28.50;;;18.17;;
7162;SDS011;3623;47.098;15.446;2023-03-05T01:33:39;33.03;;;20.27;;
7162;SDS011;3623;47.098;15.446;2023-03-05T01:36:06;25.48;;;18.70;;
7162;SDS011;3623;47.098;15.446;2023-03-05T01:38:37;23.10;;;17.25;;
7162;SDS011;3623;47.098;15.446;2023-03-05T01:41:06;25.23;;;17.33;;
7162;SDS011;3623;47.098;15.446;2023-03-05T01:43:33;28.90;;;18.58;;
7162;SDS011;3623;47.098;15.446;2023-03-05T01:46:16;29.48;;;18.40;;
7162;SDS011;3623;47.098;15.446;2023-03-05T01:48:55;30.60;;;20.00;;
7162;SDS011;3623;47.098;15.446;2023-03-05T01:51:28;31.73;;;19.65;;
7162;SDS011;3623;47.098;15.446;2023-03-05T01:53:59;25.38;;;18.58;;
7162;SDS011;3623;47.098;15.446;2023-03-05T01:56:28;26.70;;;18.05;;
7162;SDS011;3623;47.098;15.446;2023-03-05T01:58:56;31.38;;;19.08;;
7162;SDS011;3623;47.098;15.446;2023-03-05T02:01:29;28.95;;;20.13;;
7162;SDS011;3623;47.098;15.446;2023-03-05T02:03:59;28.20;;;16.52;;
7162;SDS011;3623;47.098;15.446;2023-03-05T02:06:26;31.50;;;18.98;;
7162;SDS011;3623;47.098;15.446;2023-03-05T02:08:54;33.28;;;19.33;;
7162;SDS011;3623;47.098;15.446;2023-03-05T02:11:21;22.60;;;16.23;;
7162;SDS011;3623;47.098;15.446;2023-03-05T02:13:50;28.15;;;17.50;;
7162;SDS011;3623;47.098;15.446;2023-03-05T02:16:17;26.85;;;17.58;;
7162;SDS011;3623;47.098;15.446;2023-03-05T02:18:44;27.00;;;17.02;;
7162;SDS011;3623;47.098;15.446;2023-03-05T02:21:13;24.67;;;18.95;;
7162;SDS011;3623;47.098;15.446;2023-03-05T02:23:40;27.08;;;17.30;;
7162;SDS011;3623;47.098;15.446;2023-03-05T02:26:08;25.10;;;17.85;;
7162;SDS011;3623;47.098;15.446;2023-03-05T02:28:37;26.90;;;17.35;;
7162;SDS011;3623;47.098;15.446;2023-03-05T02:31:09;26.55;;;17.42;;
7162;SDS011;3623;47.098;15.446;2023-03-05T02:33:40;21.92;;;17.00;;
7162;SDS011;3623;47.098;15.446;2023-03-05T02:36:07;36.97;;;18.15;;
7162;SDS011;3623;47.098;15.446;2023-03-05T02:38:37;26.88;;;18.80;;
7162;SDS011;3623;47.098;15.446;2023-03-05T02:41:05;26.13;;;16.83;;
7162;SDS011;3623;47.098;15.446;2023-03-05T02:43:33;23.90;;;18.05;;
7162;SDS011;3623;47.098;15.446;2023-03-05T02:46:00;25.42;;;17.45;;
7162;SDS011;3623;47.098;15.446;2023-03-05T02:48:27;24.98;;;16.48;;
7162;SDS011;3623;47.098;15.446;2023-03-05T02:50:54;24.40;;;17.88;;
7162;SDS011;3623;47.098;15.446;2023-03-05T02:53:23;28.10;;;16.55;;
7162;SDS011;3623;47.098;15.446;2023-03-05T02:55:52;25.80;;;16.90;;
7162;SDS011;3623;47.098;15.446;2023-03-05T02:58:19;22.60;;;15.30;;
7162;SDS011;3623;47.098;15.446;2023-03-05T03:00:46;27.30;;;16.48;;
7162;SDS011;3623;47.098;15.446;2023-03-05T03:03:13;26.98;;;17.25;;
7162;SDS011;3623;47.098;15.446;2023-03-05T03:05:40;27.63;;;17.33;;
7162;SDS011;3623;47.098;15.446;2023-03-05T03:08:07;27.23;;;17.23;;
7162;SDS011;3623;47.098;15.446;2023-03-05T03:10:34;23.70;;;16.83;;
7162;SDS011;3623;47.098;15.446;2023-03-05T03:13:03;25.27;;;15.60;;
7162;SDS011;3623;47.098;15.446;2023-03-05T03:15:30;25.83;;;16.42;;
7162;SDS011;3623;47.098;15.446;2023-03-05T03:17:57;23.23;;;16.90;;
7162;SDS011;3623;47.098;15.446;2023-03-05T03:20:24;33.05;;;17.65;;
7162;SDS011;3623;47.098;15.446;2023-03-05T03:22:51;26.10;;;16.77;;
7162;SDS011;3623;47.098;15.446;2023-03-05T03:25:19;27.98;;;17.15;;
7162;SDS011;3623;47.098;15.446;2023-03-05T03:27:48;30.50;;;17.95;;
7162;SDS011;3623;47.098;15.446;2023-03-05T03:30:16;28.40;;;17.05;;
7162;SDS011;3623;47.098;15.446;2023-03-05T03:32:44;23.27;;;17.10;;
7162;SDS011;3623;47.098;15.446;2023-03-05T03:35:11;25.05;;;16.73;;
7162;SDS011;3623;47.098;15.446;2023-03-05T03:37:38;25.33;;;18.02;;
7162;SDS011;3623;47.098;15.446;2023-03-05T03:40:06;22.30;;;15.93;;
7162;SDS011;3623;47.098;15.446;2023-03-05T03:42:34;25.55;;;17.48;;
7162;SDS011;3623;47.098;15.446;2023-03-05T03:45:01;27.25;;;16.98;;
7162;SDS011;3623;47.098;15.446;2023-03-05T03:47:29;26.10;;;17.92;;
7162;SDS011;3623;47.098;15.446;2023-03-05T03:49:56;26.85;;;17.77;;
7162;SDS011;3623;47.098;15.446;2023-03-05T03:52:24;25.83;;;17.65;;
7162;SDS011;3623;47.098;15.446;2023-03-05T03:54:51;30.70;;;16.73;;
7162;SDS011;3623;47.098;15.446;2023-03-05T03:57:19;26.75;;;18.50;;
7162;SDS011;3623;47.098;15.446;2023-03-05T03:59:46;36.90;;;19.58;;
7162;SDS011;3623;47.098;15.446;2023-03-05T04:02:15;32.70;;;17.88;;
7162;SDS011;3623;47.098;15.446;2023-03-05T04:04:43;27.05;;;18.00;;
7162;SDS011;3623;47.098;15.446;2023-03-05T04:07:10;33.40;;;19.27;;
7162;SDS011;3623;47.098;15.446;2023-03-05T04:09:38;23.05;;;17.23;;
7162;SDS011;3623;47.098;15.446;2023-03-05T04:12:05;25.85;;;17.27;;
7162;SDS011;3623;47.098;15.446;2023-03-05T04:14:32;27.55;;;16.83;;
7162;SDS011;3623;47.098;15.446;2023-03-05T04:16:59;28.63;;;19.45;;
7162;SDS011;3623;47.098;15.446;2023-03-05T04:19:26;21.95;;;16.05;;
7162;SDS011;3623;47.098;15.446;2023-03-05T04:21:56;24.15;;;16.48;;
7162;SDS011;3623;47.098;15.446;2023-03-05T04:24:23;29.48;;;17.83;;
7162;SDS011;3623;47.098;15.446;2023-03-05T04:26:50;29.88;;;18.85;;
7162;SDS011;3623;47.098;15.446;2023-03-05T04:29:17;27.75;;;18.20;;
7162;SDS011;3623;47.098;15.446;2023-03-05T04:31:44;29.05;;;16.67;;
7162;SDS011;3623;47.098;15.446;2023-03-05T04:34:12;28.65;;;17.50;;
7162;SDS011;3623;47.098;15.446;2023-03-05T04:36:39;27.02;;;17.77;;
7162;SDS011;3623;47.098;15.446;2023-03-05T04:39:07;30.73;;;20.02;;
7162;SDS011;3623;47.098;15.446;2023-03-05T04:41:34;34.90;;;18.92;;
7162;SDS011;3623;47.098;15.446;2023-03-05T04:44:01;31.48;;;18.88;;
7162;SDS011;3623;47.098;15.446;2023-03-05T04:46:28;30.08;;;17.02;;
7162;SDS011;3623;47.098;15.446;2023-03-05T04:48:56;27.80;;;17.70;;
7162;SDS011;3623;47.098;15.446;2023-03-05T04:51:24;34.10;;;18.90;;
7162;SDS011;3623;47.098;15.446;2023-03-05T04:53:51;27.85;;;18.90;;
7162;SDS011;3623;47.098;15.446;2023-03-05T04:56:19;29.13;;;19.27;;
7162;SDS011;3623;47.098;15.446;2023-03-05T04:58:47;30.58;;;18.98;;
7162;SDS011;3623;47.098;15.446;2023-03-05T05:01:14;26.92;;;16.80;;
7162;SDS011;3623;47.098;15.446;2023-03-05T05:03:41;29.25;;;18.85;;
7162;SDS011;3623;47.098;15.446;2023-03-05T05:06:08;31.42;;;17.95;;
7162;SDS011;3623;47.098;15.446;2023-03-05T05:08:35;28.02;;;16.83;;
7162;SDS011;3623;47.098;15.446;2023-03-05T05:11:03;30.15;;;18.17;;
7162;SDS011;3623;47.098;15.446;2023-03-05T05:13:33;27.67;;;18.35;;
7162;SDS011;3623;47.098;15.446;2023-03-05T05:16:01;29.15;;;18.88;;
7162;SDS011;3623;47.098;15.446;2023-03-05T05:18:31;26.48;;;18.25;;
7162;SDS011;3623;47.098;15.446;2023-03-05T05:20:58;27.58;;;19.23;;
7162;SDS011;3623;47.098;15.446;2023-03-05T05:23:25;32.25;;;18.13;;
7162;SDS011;3623;47.098;15.446;2023-03-05T05:25:56;25.90;;;19.25;;
7162;SDS011;3623;47.098;15.446;2023-03-05T05:28:23;24.23;;;17.98;;
7162;SDS011;3623;47.098;15.446;2023-03-05T05:30:52;29.55;;;18.13;;
7162;SDS011;3623;47.098;15.446;2023-03-05T05:33:19;24.73;;;17.70;;
7162;SDS011;3623;47.098;15.446;2023-03-05T05:35:47;25.83;;;17.50;;
7162;SDS011;3623;47.098;15.446;2023-03-05T05:38:14;26.27;;;19.02;;
7162;SDS011;3623;47.098;15.446;2023-03-05T05:40:41;28.83;;;19.05;;
7162;SDS011;3623;47.098;15.446;2023-03-05T05:43:08;24.88;;;17.90;;
7162;SDS011;3623;47.098;15.446;2023-03-05T05:45:36;27.48;;;19.58;;
7162;SDS011;3623;47.098;15.446;2023-03-05T05:48:05;30.50;;;18.42;;
7162;SDS011;3623;47.098;15.446;2023-03-05T05:50:32;33.55;;;19.48;;
7162;SDS011;3623;47.098;15.446;2023-03-05T05:52:59;26.75;;;18.38;;
7162;SDS011;3623;47.098;15.446;2023-03-05T05:55:26;25.42;;;18.13;;
7162;SDS011;3623;47.098;15.446;2023-03-05T05:57:53;32.08;;;18.45;;
7162;SDS011;3623;47.098;15.446;2023-03-05T06:00:20;31.38;;;19.33;;
7162;SDS011;3623;47.098;15.446;2023-03-05T06:02:48;27.05;;;18.90;;
7162;SDS011;3623;47.098;15.446;2023-03-05T06:05:16;28.58;;;19.88;;
7162;SDS011;3623;47.098;15.446;2023-03-05T06:07:43;27.70;;;20.88;;
7162;SDS011;3623;47.098;15.446;2023-03-05T06:10:10;27.98;;;17.55;;
7162;SDS011;3623;47.098;15.446;2023-03-05T06:12:37;28.50;;;19.35;;
7162;SDS011;3623;47.098;15.446;2023-03-05T06:15:05;28.25;;;17.33;;
7162;SDS011;3623;47.098;15.446;2023-03-05T06:17:33;28.80;;;18.42;;
7162;SDS011;3623;47.098;15.446;2023-03-05T06:20:00;28.45;;;18.02;;
7162;SDS011;3623;47.098;15.446;2023-03-05T06:22:29;24.75;;;18.15;;
7162;SDS011;3623;47.098;15.446;2023-03-05T06:24:57;23.95;;;17.83;;
7162;SDS011;3623;47.098;15.446;2023-03-05T06:27:24;30.13;;;20.13;;
7162;SDS011;3623;47.098;15.446;2023-03-05T06:29:51;22.48;;;18.15;;
7162;SDS011;3623;47.098;15.446;2023-03-05T06:32:20;30.75;;;17.42;;
7162;SDS011;3623;47.098;15.446;2023-03-05T06:34:47;33.50;;;22.33;;
7162;SDS011;3623;47.098;15.446;2023-03-05T06:37:15;32.40;;;23.02;;
7162;SDS011;3623;47.098;15.446;2023-03-05T06:39:44;30.95;;;21.33;;
7162;SDS011;3623;47.098;15.446;2023-03-05T06:42:11;29.63;;;18.15;;
7162;SDS011;3623;47.098;15.446;2023-03-05T06:44:38;26.40;;;18.92;;
7162;SDS011;3623;47.098;15.446;2023-03-05T06:47:06;25.55;;;17.60;;
7162;SDS011;3623;47.098;15.446;2023-03-05T06:49:34;27.50;;;18.05;;
7162;SDS011;3623;47.098;15.446;2023-03-05T06:52:02;23.90;;;16.60;;
7162;SDS011;3623;47.098;15.446;2023-03-05T06:54:29;23.40;;;17.42;;
7162;SDS011;3623;47.098;15.446;2023-03-05T06:56:57;27.33;;;17.30;;
7162;SDS011;3623;47.098;15.446;2023-03-05T06:59:24;25.15;;;18.90;;
7162;SDS011;3623;47.098;15.446;2023-03-05T07:01:51;33.33;;;19.65;;
7162;SDS011;3623;47.098;15.446;2023-03-05T07:04:19;34.08;;;20.80;;
7162;SDS011;3623;47.098;15.446;2023-03-05T07:06:48;29.40;;;18.50;;
7162;SDS011;3623;47.098;15.446;2023-03-05T07:09:15;20.60;;;16.83;;
7162;SDS011;3623;47.098;15.446;2023-03-05T07:11:42;24.75;;;18.23;;
7162;SDS011;3623;47.098;15.446;2023-03-05T07:14:11;27.63;;;19.27;;
7162;SDS011;3623;47.098;15.446;2023-03-05T07:16:38;30.35;;;18.02;;
7162;SDS011;3623;47.098;15.446;2023-03-05T07:19:05;28.63;;;18.85;;
7162;SDS011;3623;47.098;15.446;2023-03-05T07:21:35;24.92;;;18.02;;
7162;SDS011;3623;47.098;15.446;2023-03-05T07:24:04;26.65;;;19.10;;
7162;SDS011;3623;47.098;15.446;2023-03-05T07:26:32;26.90;;;17.38;;
7162;SDS011;3623;47.098;15.446;2023-03-05T07:28:59;25.02;;;17.88;;
7162;SDS011;3623;47.098;15.446;2023-03-05T07:31:28;21.80;;;17.48;;
7162;SDS011;3623;47.098;15.446;2023-03-05T07:33:56;25.75;;;17.13;;
7162;SDS011;3623;47.098;15.446;2023-03-05T07:36:25;23.65;;;15.70;;
7162;SDS011;3623;47.098;15.446;2023-03-05T07:38:52;26.73;;;18.40;;
7162;SDS011;3623;47.098;15.446;2023-03-05T07:41:19;24.75;;;17.35;;
7162;SDS011;3623;47.098;15.446;2023-03-05T07:43:48;24.30;;;15.68;;
7162;SDS011;3623;47.098;15.446;2023-03-05T07:46:18;21.45;;;16.38;;
7162;SDS011;3623;47.098;15.446;2023-03-05T07:48:49;24.88;;;19.00;;
7162;SDS011;3623;47.098;15.446;2023-03-05T07:51:19;24.23;;;16.60;;
7162;SDS011;3623;47.098;15.446;2023-03-05T07:53:47;34.00;;;18.67;;
7162;SDS011;3623;47.098;15.446;2023-03-05T07:56:19;27.58;;;17.38;;
7162;SDS011;3623;47.098;15.446;2023-03-05T07:58:47;22.50;;;16.30;;
7162;SDS011;3623;47.098;15.446;2023-03-05T08:01:14;23.92;;;17.25;;
7162;SDS011;3623;47.098;15.446;2023-03-05T08:03:42;25.48;;;17.60;;
7162;SDS011;3623;47.098;15.446;2023-03-05T08:06:10;22.13;;;17.70;;
7162;SDS011;3623;47.098;15.446;2023-03-05T08:08:38;24.67;;;18.75;;
7162;SDS011;3623;47.098;15.446;2023-03-05T08:11:05;24.55;;;17.17;;
7162;SDS011;3623;47.098;15.446;2023-03-05T08:13:33;21.65;;;16.85;;
7162;SDS011;3623;47.098;15.446;2023-03-05T08:16:02;22.20;;;18.10;;
7162;SDS011;3623;47.098;15.446;2023-03-05T08:18:30;28.70;;;18.83;;
7162;SDS011;3623;47.098;15.446;2023-03-05T08:20:57;24.48;;;18.85;;
7162;SDS011;3623;47.098;15.446;2023-03-05T08:23:26;26.80;;;19.52;;
7162;SDS011;3623;47.098;15.446;2023-03-05T08:25:53;22.83;;;15.98;;
7162;SDS011;3623;47.098;15.446;2023-03-05T08:28:20;27.15;;;19.30;;
7162;SDS011;3623;47.098;15.446;2023-03-05T08:30:48;24.88;;;19.10;;
7162;SDS011;3623;47.098;15.446;2023-03-05T08:33:15;27.02;;;16.75;;
7162;SDS011;3623;47.098;15.446;2023-03-05T08:35:43;21.95;;;17.08;;
7162;SDS011;3623;47.098;15.446;2023-03-05T08:38:10;27.02;;;19.02;;
7162;SDS011;3623;47.098;15.446;2023-03-05T08:40:39;24.35;;;17.45;;
7162;SDS011;3623;47.098;15.446;2023-03-05T08:43:07;25.77;;;16.80;;
7162;SDS011;3623;47.098;15.446;2023-03-05T08:45:34;23.15;;;16.77;;
7162;SDS011;3623;47.098;15.446;2023-03-05T08:48:01;25.10;;;18.33;;
7162;SDS011;3623;47.098;15.446;2023-03-05T08:50:28;21.13;;;16.90;;
7162;SDS011;3623;47.098;15.446;2023-03-05T08:52:55;25.75;;;18.10;;
7162;SDS011;3623;47.098;15.446;2023-03-05T08:55:22;23.42;;;18.30;;
7162;SDS011;3623;47.098;15.446;2023-03-05T08:57:51;24.00;;;17.83;;
7162;SDS011;3623;47.098;15.446;2023-03-05T09:00:18;23.10;;;17.45;;
7162;SDS011;3623;47.098;15.446;2023-03-05T09:02:45;23.92;;;17.45;;
7162;SDS011;3623;47.098;15.446;2023-03-05T09:05:12;26.88;;;18.98;;
7162;SDS011;3623;47.098;15.446;2023-03-05T09:07:39;27.77;;;19.20;;
7162;SDS011;3623;47.098;15.446;2023-03-05T09:10:07;25.30;;;16.90;;
7162;SDS011;3623;47.098;15.446;2023-03-05T09:12:36;19.88;;;17.75;;
7162;SDS011;3623;47.098;15.446;2023-03-05T09:15:06;23.50;;;18.48;;
7162;SDS011;3623;47.098;15.446;2023-03-05T09:17:34;24.95;;;18.15;;
7162;SDS011;3623;47.098;15.446;2023-03-05T09:20:02;22.02;;;18.70;;
7162;SDS011;3623;47.098;15.446;2023-03-05T09:22:31;23.52;;;19.50;;
7162;SDS011;3623;47.098;15.446;2023-03-05T09:24:58;31.85;;;20.08;;
7162;SDS011;3623;47.098;15.446;2023-03-05T09:27:25;24.63;;;19.08;;
7162;SDS011;3623;47.098;15.446;2023-03-05T09:29:52;29.55;;;18.38;;
7162;SDS011;3623;47.098;15.446;2023-03-05T09:32:21;22.90;;;18.52;;
7162;SDS011;3623;47.098;15.446;2023-03-05T09:34:48;33.03;;;20.92;;
7162;SDS011;3623;47.098;15.446;2023-03-05T09:37:15;23.45;;;19.38;;
7162;SDS011;3623;47.098;15.446;2023-03-05T09:39:42;29.08;;;19.25;;
7162;SDS011;3623;47.098;15.446;2023-03-05T09:45:08;23.33;;;18.30;;
7162;SDS011;3623;47.098;15.446;2023-03-05T09:47:50;19.90;;;16.60;;
7162;SDS011;3623;47.098;15.446;2023-03-05T09:50:29;21.17;;;17.35;;
7162;SDS011;3623;47.098;15.446;2023-03-05T09:53:17;21.80;;;18.08;;
7162;SDS011;3623;47.098;15.446;2023-03-05T09:55:51;23.23;;;18.00;;
7162;SDS011;3623;47.098;15.446;2023-03-05T09:58:21;23.67;;;17.52;;
7162;SDS011;3623;47.098;15.446;2023-03-05T10:00:55;24.73;;;17.15;;
7162;SDS011;3623;47.098;15.446;2023-03-05T10:03:27;25.58;;;18.02;;
7162;SDS011;3623;47.098;15.446;2023-03-05T10:06:04;19.00;;;14.30;;
7162;SDS011;3623;47.098;15.446;2023-03-05T10:08:44;20.40;;;16.52;;
7162;SDS011;3623;47.098;15.446;2023-03-05T10:11:20;19.23;;;15.68;;
7162;SDS011;3623;47.098;15.446;2023-03-05T10:14:06;24.38;;;16.23;;
7162;SDS011;3623;47.098;15.446;2023-03-05T10:16:46;19.85;;;15.70;;
7162;SDS011;3623;47.098;15.446;2023-03-05T10:19:33;18.33;;;15.80;;
7162;SDS011;3623;47.098;15.446;2023-03-05T10:22:12;21.70;;;15.95;;
7162;SDS011;3623;47.098;15.446;2023-03-05T10:24:46;19.95;;;15.85;;
7162;SDS011;3623;47.098;15.446;2023-03-05T10:27:38;20.38;;;17.27;;
7162;SDS011;3623;47.098;15.446;2023-03-05T10:30:22;19.35;;;15.43;;
7162;SDS011;3623;47.098;15.446;2023-03-05T10:33:02;17.98;;;15.25;;
7162;SDS011;3623;47.098;15.446;2023-03-05T10:35:48;22.17;;;15.45;;
7162;SDS011;3623;47.098;15.446;2023-03-05T10:41:27;21.20;;;15.82;;
7162;SDS011;3623;47.098;15.446;2023-03-05T10:43:59;22.52;;;15.65;;
7162;SDS011;3623;47.098;15.446;2023-03-05T10:46:30;20.52;;;15.65;;
7162;SDS011;3623;47.098;15.446;2023-03-05T10:49:01;19.08;;;15.93;;
7162;SDS011;3623;47.098;15.446;2023-03-05T10:51:40;18.77;;;14.93;;
7162;SDS011;3623;47.098;15.446;2023-03-05T10:54:15;16.63;;;14.60;;
7162;SDS011;3623;47.098;15.446;2023-03-05T10:56:49;17.30;;;13.60;;
7162;SDS011;3623;47.098;15.446;2023-03-05T10:59:16;15.63;;;13.63;;
7162;SDS011;3623;47.098;15.446;2023-03-05T11:01:45;20.10;;;14.80;;
7162;SDS011;3623;47.098;15.446;2023-03-05T11:04:29;20.33;;;14.73;;
7162;SDS011;3623;47.098;15.446;2023-03-05T11:07:05;17.90;;;14.73;;
7162;SDS011;3623;47.098;15.446;2023-03-05T11:09:34;17.90;;;14.00;;
7162;SDS011;3623;47.098;15.446;2023-03-05T11:12:05;18.87;;;15.27;;
7162;SDS011;3623;47.098;15.446;2023-03-05T11:14:38;17.87;;;14.20;;
7162;SDS011;3623;47.098;15.446;2023-03-05T11:17:22;16.80;;;14.83;;
7162;SDS011;3623;47.098;15.446;2023-03-05T11:19:53;16.33;;;14.60;;
7162;SDS011;3623;47.098;15.446;2023-03-05T11:22:21;21.37;;;15.80;;
7162;SDS011;3623;47.098;15.446;2023-03-05T11:25:02;18.20;;;15.07;;
7162;SDS011;3623;47.098;15.446;2023-03-05T11:27:37;19.10;;;15.68;;
7162;SDS011;3623;47.098;15.446;2023-03-05T11:30:17;19.40;;;15.90;;
7162;SDS011;3623;47.098;15.446;2023-03-05T11:32:45;17.17;;;14.40;;
7162;SDS011;3623;47.098;15.446;2023-03-05T11:35:21;18.33;;;15.10;;
7162;SDS011;3623;47.098;15.446;2023-03-05T11:38:01;19.70;;;16.30;;
7162;SDS011;3623;47.098;15.446;2023-03-05T11:40:30;21.73;;;14.90;;
7162;SDS011;3623;47.098;15.446;2023-03-05T11:43:00;24.60;;;16.10;;
7162;SDS011;3623;47.098;15.446;2023-03-05T11:45:30;15.20;;;13.70;;
7162;SDS011;3623;47.098;15.446;2023-03-05T11:47:59;16.93;;;13.77;;
7162;SDS011;3623;47.098;15.446;2023-03-05T11:50:31;16.07;;;14.00;;
7162;SDS011;3623;47.098;15.446;2023-03-05T11:53:01;23.50;;;15.60;;
7162;SDS011;3623;47.098;15.446;2023-03-05T11:55:32;19.17;;;15.07;;
7162;SDS011;3623;47.098;15.446;2023-03-05T12:00:53;18.13;;;14.60;;
7162;SDS011;3623;47.098;15.446;2023-03-05T12:03:21;16.70;;;15.10;;
7162;SDS011;3623;47.098;15.446;2023-03-05T12:05:52;19.27;;;15.37;;
7162;SDS011;3623;47.098;15.446;2023-03-05T12:08:25;18.07;;;14.93;;
7162;SDS011;3623;47.098;15.446;2023-03-05T12:11:06;18.40;;;15.00;;
7162;SDS011;3623;47.098;15.446;2023-03-05T12:13:40;18.83;;;14.53;;
7162;SDS011;3623;47.098;15.446;2023-03-05T12:16:13;17.23;;;15.47;;
7162;SDS011;3623;47.098;15.446;2023-03-05T12:18:51;22.13;;;15.03;;
7162;SDS011;3623;47.098;15.446;2023-03-05T12:21:27;17.77;;;13.97;;
7162;SDS011;3623;47.098;15.446;2023-03-05T12:24:02;19.00;;;15.30;;
7162;SDS011;3623;47.098;15.446;2023-03-05T12:27:10;17.80;;;13.57;;
7162;SDS011;3623;47.098;15.446;2023-03-05T12:29:41;23.05;;;14.95;;
7162;SDS011;3623;47.098;15.446;2023-03-05T12:35:26;16.67;;;14.10;;
7162;SDS011;3623;47.098;15.446;2023-03-05T12:38:02;17.03;;;13.77;;
7162;SDS011;3623;47.098;15.446;2023-03-05T12:40:46;14.90;;;13.10;;
7162;SDS011;3623;47.098;15.446;2023-03-05T12:48:48;17.10;;;14.53;;
7162;SDS011;3623;47.098;15.446;2023-03-05T12:51:29;18.57;;;14.80;;
7162;SDS011;3623;47.098;15.446;2023-03-05T12:56:51;17.20;;;15.20;;
7162;SDS011;3623;47.098;15.446;2023-03-05T12:59:20;16.03;;;13.47;;
7162;SDS011;3623;47.098;15.446;2023-03-05T13:01:51;17.73;;;14.77;;
7162;SDS011;3623;47.098;15.446;2023-03-05T13:04:22;16.47;;;13.90;;
7162;SDS011;3623;47.098;15.446;2023-03-05T13:06:59;14.30;;;12.77;;
7162;SDS011;3623;47.098;15.446;2023-03-05T13:09:29;15.23;;;13.63;;
7162;SDS011;3623;47.098;15.446;2023-03-05T13:12:00;16.37;;;12.87;;
7162;SDS011;3623;47.098;15.446;2023-03-05T13:14:40;16.43;;;14.73;;
7162;SDS011;3623;47.098;15.446;2023-03-05T13:17:27;18.90;;;14.47;;
7162;SDS011;3623;47.098;15.446;2023-03-05T13:20:20;17.40;;;13.13;;
7162;SDS011;3623;47.098;15.446;2023-03-05T13:23:04;13.47;;;11.70;;
7162;SDS011;3623;47.098;15.446;2023-03-05T13:25:44;17.70;;;12.97;;
7162;SDS011;3623;47.098;15.446;2023-03-05T13:28:22;18.67;;;13.30;;
7162;SDS011;3623;47.098;15.446;2023-03-05T13:30:50;14.30;;;12.13;;
7162;SDS011;3623;47.098;15.446;2023-03-05T13:33:19;19.27;;;15.83;;
7162;SDS011;3623;47.098;15.446;2023-03-05T13:35:50;22.13;;;15.40;;
7162;SDS011;3623;47.098;15.446;2023-03-05T13:38:21;17.07;;;13.80;;
7162;SDS011;3623;47.098;15.446;2023-03-05T13:41:01;17.70;;;13.40;;
7162;SDS011;3623;47.098;15.446;2023-03-05T13:43:46;14.20;;;12.40;;
7162;SDS011;3623;47.098;15.446;2023-03-05T13:46:21;15.63;;;13.53;;
7162;SDS011;3623;47.098;15.446;2023-03-05T13:48:49;17.70;;;13.10;;
7162;SDS011;3623;47.098;15.446;2023-03-05T13:51:16;15.03;;;12.97;;
7162;SDS011;3623;47.098;15.446;2023-03-05T13:53:44;19.77;;;14.05;;
7162;SDS011;3623;47.098;15.446;2023-03-05T13:56:12;21.27;;;14.15;;
7162;SDS011;3623;47.098;15.446;2023-03-05T13:58:42;16.27;;;13.40;;
7162;SDS011;3623;47.098;15.446;2023-03-05T14:01:14;20.48;;;13.77;;
7162;SDS011;3623;47.098;15.446;2023-03-05T14:03:48;18.52;;;14.43;;
7162;SDS011;3623;47.098;15.446;2023-03-05T14:06:17;16.85;;;12.82;;
7162;SDS011;3623;47.098;15.446;2023-03-05T14:08:47;18.05;;;13.00;;
7162;SDS011;3623;47.098;15.446;2023-03-05T14:11:16;18.70;;;12.50;;
7162;SDS011;3623;47.098;15.446;2023-03-05T14:13:44;14.38;;;12.07;;
7162;SDS011;3623;47.098;15.446;2023-03-05T14:16:14;16.33;;;12.98;;
7162;SDS011;3623;47.098;15.446;2023-03-05T14:18:53;17.45;;;13.05;;
7162;SDS011;3623;47.098;15.446;2023-03-05T14:21:21;16.02;;;13.15;;
7162;SDS011;3623;47.098;15.446;2023-03-05T14:23:50;16.00;;;12.93;;
7162;SDS011;3623;47.098;15.446;2023-03-05T14:26:24;19.75;;;13.77;;
7162;SDS011;3623;47.098;15.446;2023-03-05T14:28:54;15.88;;;12.40;;
7162;SDS011;3623;47.098;15.446;2023-03-05T14:31:24;14.63;;;11.43;;
7162;SDS011;3623;47.098;15.446;2023-03-05T14:33:53;12.38;;;11.18;;
7162;SDS011;3623;47.098;15.446;2023-03-05T14:36:25;16.58;;;11.93;;
7162;SDS011;3623;47.098;15.446;2023-03-05T14:38:54;17.65;;;14.18;;
7162;SDS011;3623;47.098;15.446;2023-03-05T14:41:30;16.73;;;12.18;;
7162;SDS011;3623;47.098;15.446;2023-03-05T14:44:07;17.80;;;13.05;;
7162;SDS011;3623;47.098;15.446;2023-03-05T14:46:39;16.38;;;11.77;;
7162;SDS011;3623;47.098;15.446;2023-03-05T14:49:06;14.30;;;12.40;;
7162;SDS011;3623;47.098;15.446;2023-03-05T14:51:34;15.27;;;12.18;;
7162;SDS011;3623;47.098;15.446;2023-03-05T14:54:05;19.38;;;13.52;;
7162;SDS011;3623;47.098;15.446;2023-03-05T14:56:32;18.05;;;12.90;;
7162;SDS011;3623;47.098;15.446;2023-03-05T14:58:59;22.50;;;14.75;;
7162;SDS011;3623;47.098;15.446;2023-03-05T15:01:27;17.27;;;13.60;;
7162;SDS011;3623;47.098;15.446;2023-03-05T15:03:55;15.68;;;12.20;;
7162;SDS011;3623;47.098;15.446;2023-03-05T15:06:23;18.52;;;13.38;;
7162;SDS011;3623;47.098;15.446;2023-03-05T15:08:57;19.17;;;13.43;;